createdAt,value
2023-01-30T00:01:03.757Z,9.70
2023-01-30T00:03:31.106Z,9.60
2023-01-30T00:05:58.279Z,9.70
2023-01-30T00:08:25.423Z,9.70
2023-01-30T00:10:52.668Z,9.60
2023-01-30T00:13:19.879Z,9.70
2023-01-30T00:15:48.517Z,9.60
2023-01-30T00:18:15.705Z,9.60
2023-01-30T00:20:42.990Z,9.70
2023-01-30T00:23:10.182Z,9.70
2023-01-30T00:25:37.515Z,9.60
2023-01-30T00:28:04.827Z,9.60
2023-01-30T00:30:32.156Z,9.60
2023-01-30T00:32:59.732Z,9.60
2023-01-30T00:35:29.717Z,9.60
2023-01-30T00:37:58.357Z,9.60
2023-01-30T00:40:26.820Z,9.50
2023-01-30T00:43:13.048Z,9.60
2023-01-30T00:46:01.629Z,9.60
2023-01-30T00:48:29.319Z,9.60
2023-01-30T00:50:57.013Z,9.60
2023-01-30T00:53:24.931Z,9.50
2023-01-30T00:55:53.059Z,9.50
2023-01-30T00:58:21.553Z,9.40
2023-01-30T01:00:49.770Z,9.30
2023-01-30T01:03:17.301Z,9.20
2023-01-30T01:05:44.883Z,9.20
2023-01-30T01:08:15.237Z,9.10
2023-01-30T01:10:42.758Z,9.10
2023-01-30T01:13:10.612Z,9.00
2023-01-30T01:15:38.301Z,9.00
2023-01-30T01:18:06.361Z,9.00
2023-01-30T01:20:33.699Z,9.00
2023-01-30T01:23:00.977Z,9.00
2023-01-30T01:25:28.220Z,9.00
2023-01-30T01:27:55.685Z,9.00
2023-01-30T01:30:23.032Z,8.90
2023-01-30T01:32:50.283Z,8.80
2023-01-30T01:35:19.492Z,8.80
2023-01-30T01:37:47.100Z,8.60
2023-01-30T01:40:40.336Z,8.60
2023-01-30T01:43:35.376Z,8.50
2023-01-30T01:46:10.697Z,8.50
2023-01-30T01:48:47.171Z,8.40
2023-01-30T01:51:47.025Z,8.40
2023-01-30T01:54:26.036Z,8.40
2023-01-30T01:56:53.914Z,8.50
2023-01-30T01:59:38.957Z,8.40
2023-01-30T02:02:10.763Z,8.40
2023-01-30T02:05:01.178Z,8.40
2023-01-30T02:07:35.292Z,8.40
2023-01-30T02:10:04.112Z,8.40
2023-01-30T02:12:32.569Z,8.40
2023-01-30T02:15:01.136Z,8.30
2023-01-30T02:17:28.323Z,8.30
2023-01-30T02:20:02.255Z,8.30
2023-01-30T02:22:51.340Z,8.40
2023-01-30T02:25:46.450Z,8.30
2023-01-30T02:28:45.099Z,8.40
2023-01-30T02:31:48.062Z,8.40
2023-01-30T02:34:24.649Z,8.40
2023-01-30T02:36:55.115Z,8.40
2023-01-30T02:40:05.737Z,8.50
2023-01-30T02:42:44.948Z,8.60
2023-01-30T02:45:31.128Z,8.70
2023-01-30T02:48:06.646Z,8.70
2023-01-30T02:50:48.329Z,8.80
2023-01-30T02:53:16.156Z,8.80
2023-01-30T02:55:43.359Z,8.80
2023-01-30T02:58:12.316Z,8.90
2023-01-30T03:01:07.349Z,8.90
2023-01-30T03:04:09.527Z,8.90
2023-01-30T03:06:55.570Z,9.00
2023-01-30T03:09:34.873Z,9.00
2023-01-30T03:12:11.592Z,9.10
2023-01-30T03:14:47.632Z,9.10
2023-01-30T03:17:18.162Z,9.10
2023-01-30T03:19:45.844Z,9.20
2023-01-30T03:22:12.995Z,9.20
2023-01-30T03:24:40.351Z,9.20
2023-01-30T03:27:12.373Z,9.20
2023-01-30T03:29:40.112Z,9.30
2023-01-30T03:32:07.429Z,9.30
2023-01-30T03:34:34.959Z,9.40
2023-01-30T03:37:02.713Z,9.40
2023-01-30T03:39:34.594Z,9.40
2023-01-30T03:42:01.881Z,9.40
2023-01-30T03:44:29.390Z,9.40
2023-01-30T03:46:56.856Z,9.50
2023-01-30T03:49:24.303Z,9.50
2023-01-30T03:51:52.314Z,9.50
2023-01-30T03:54:19.740Z,9.50
2023-01-30T03:56:47.535Z,9.50
2023-01-30T03:59:14.692Z,9.50
2023-01-30T04:01:49.198Z,9.50
2023-01-30T04:04:16.429Z,9.50
2023-01-30T04:06:43.692Z,9.50
2023-01-30T04:09:10.835Z,9.50
2023-01-30T04:11:42.849Z,9.50
2023-01-30T04:14:10.040Z,9.60
2023-01-30T04:16:47.386Z,9.50
2023-01-30T04:19:37.926Z,9.60
2023-01-30T04:22:05.353Z,9.60
2023-01-30T04:24:33.047Z,9.60
2023-01-30T04:27:00.229Z,9.70
2023-01-30T04:29:28.603Z,9.60
2023-01-30T04:31:56.405Z,9.60
2023-01-30T04:34:26.698Z,9.60
2023-01-30T04:36:55.484Z,9.60
2023-01-30T04:39:23.265Z,9.50
2023-01-30T04:41:52.368Z,9.50
2023-01-30T04:44:19.905Z,9.50
2023-01-30T04:46:58.036Z,9.50
2023-01-30T04:49:25.423Z,9.50
2023-01-30T04:51:53.980Z,9.50
2023-01-30T04:54:21.249Z,9.50
2023-01-30T04:56:48.436Z,9.50
2023-01-30T04:59:16.458Z,9.40
2023-01-30T05:01:45.429Z,9.30
2023-01-30T05:04:13.262Z,9.30
2023-01-30T05:06:40.897Z,9.20
2023-01-30T05:09:08.071Z,9.10
2023-01-30T05:11:35.258Z,9.10
2023-01-30T05:14:02.591Z,9.10
2023-01-30T05:16:29.859Z,9.00
2023-01-30T05:18:57.105Z,8.90
2023-01-30T05:21:28.469Z,8.80
2023-01-30T05:23:56.789Z,8.80
2023-01-30T05:26:24.695Z,8.80
2023-01-30T05:28:56.755Z,8.70
2023-01-30T05:31:24.514Z,8.70
2023-01-30T05:33:52.681Z,8.60
2023-01-30T05:36:22.674Z,8.60
2023-01-30T05:38:50.080Z,8.60
2023-01-30T05:41:18.038Z,8.60
2023-01-30T05:43:49.711Z,8.60
2023-01-30T05:46:17.045Z,8.50
2023-01-30T05:48:44.311Z,8.60
2023-01-30T05:51:22.932Z,8.60
2023-01-30T05:53:51.005Z,8.50
2023-01-30T05:56:19.381Z,8.50
2023-01-30T05:58:54.112Z,8.50
2023-01-30T06:01:22.288Z,8.50
2023-01-30T06:03:50.226Z,8.40
2023-01-30T06:06:17.685Z,8.50
2023-01-30T06:08:45.509Z,8.50
2023-01-30T06:11:17.044Z,8.40
2023-01-30T06:13:44.709Z,8.50
2023-01-30T06:16:13.669Z,8.50
2023-01-30T06:18:41.410Z,8.40
2023-01-30T06:21:08.736Z,8.40
2023-01-30T06:23:35.970Z,8.40
2023-01-30T06:26:04.965Z,8.40
2023-01-30T06:28:33.111Z,8.30
2023-01-30T06:31:00.438Z,8.30
2023-01-30T06:33:27.646Z,8.30
2023-01-30T06:35:54.996Z,8.20
2023-01-30T06:38:22.230Z,8.30
2023-01-30T06:40:50.693Z,8.20
2023-01-30T06:43:18.378Z,8.20
2023-01-30T06:45:45.543Z,8.20
2023-01-30T06:48:12.801Z,8.20
2023-01-30T06:50:40.022Z,8.20
2023-01-30T06:53:08.358Z,8.20
2023-01-30T06:55:35.977Z,8.10
2023-01-30T06:58:11.971Z,8.10
2023-01-30T07:00:40.770Z,8.10
2023-01-30T07:03:16.013Z,8.10
2023-01-30T07:05:45.615Z,8.10
2023-01-30T07:08:13.509Z,8.00
2023-01-30T07:10:42.002Z,8.00
2023-01-30T07:13:09.387Z,8.00
2023-01-30T07:15:36.580Z,8.00
2023-01-30T07:18:03.930Z,8.00
2023-01-30T07:20:31.277Z,8.00
2023-01-30T07:22:58.980Z,8.10
2023-01-30T07:25:27.825Z,8.10
2023-01-30T07:27:58.425Z,8.20
2023-01-30T07:30:27.601Z,8.20
2023-01-30T07:32:57.792Z,8.20
2023-01-30T07:35:26.582Z,8.30
2023-01-30T07:37:53.829Z,8.30
2023-01-30T07:40:22.120Z,8.30
2023-01-30T07:43:02.987Z,8.40
2023-01-30T07:45:35.571Z,8.30
2023-01-30T07:48:02.900Z,8.30
2023-01-30T07:50:30.156Z,8.30
2023-01-30T07:52:57.325Z,8.30
2023-01-30T07:55:24.634Z,8.40
2023-01-30T07:57:51.837Z,8.50
2023-01-30T08:00:19.620Z,8.50
2023-01-30T08:02:47.014Z,8.50
2023-01-30T08:05:14.345Z,8.60
2023-01-30T08:07:41.607Z,8.60
2023-01-30T08:10:15.238Z,8.70
2023-01-30T08:12:42.800Z,8.80
2023-01-30T08:15:10.593Z,8.80
2023-01-30T08:17:37.947Z,8.80
2023-01-30T08:20:05.708Z,8.90
2023-01-30T08:22:32.947Z,8.90
2023-01-30T08:25:00.441Z,9.00
2023-01-30T08:27:27.790Z,9.10
2023-01-30T08:29:54.942Z,9.00
2023-01-30T08:32:22.075Z,9.10
2023-01-30T08:34:49.253Z,9.00
2023-01-30T08:37:16.418Z,9.00
2023-01-30T08:39:43.703Z,9.00
2023-01-30T08:42:10.851Z,9.00
2023-01-30T08:44:37.973Z,9.00
2023-01-30T08:47:05.270Z,9.00
2023-01-30T08:49:32.412Z,9.10
2023-01-30T08:51:59.633Z,9.10
2023-01-30T08:54:26.885Z,9.20
2023-01-30T08:56:54.171Z,9.50
2023-01-30T08:59:23.382Z,9.90
2023-01-30T09:01:50.592Z,10.20
2023-01-30T09:04:17.732Z,10.10
2023-01-30T09:06:44.989Z,9.90
2023-01-30T09:09:12.194Z,9.80
2023-01-30T09:11:39.337Z,9.90
2023-01-30T09:14:06.534Z,10.40
2023-01-30T09:16:33.724Z,10.30
2023-01-30T09:19:00.970Z,10.10
2023-01-30T09:21:28.596Z,9.90
2023-01-30T09:23:56.610Z,10.00
2023-01-30T09:26:24.021Z,10.30
2023-01-30T09:28:51.299Z,10.20
2023-01-30T09:31:18.568Z,10.00
2023-01-30T09:33:48.419Z,9.90
2023-01-30T09:36:15.667Z,9.80
2023-01-30T09:38:42.886Z,9.60
2023-01-30T09:41:37.312Z,9.60
2023-01-30T09:44:36.437Z,9.60
2023-01-30T09:47:06.368Z,9.50
2023-01-30T09:49:42.491Z,9.50
2023-01-30T09:52:51.136Z,9.60
2023-01-30T09:55:30.605Z,9.70
2023-01-30T09:58:00.519Z,9.60
2023-01-30T10:00:37.739Z,9.70
2023-01-30T10:03:24.612Z,9.70
2023-01-30T10:06:01.255Z,9.70
2023-01-30T10:08:40.396Z,9.70
2023-01-30T10:11:35.685Z,9.70
2023-01-30T10:14:42.864Z,9.70
2023-01-30T10:17:32.895Z,9.00
2023-01-30T10:20:34.283Z,9.70
2023-01-30T10:23:26.122Z,9.70
2023-01-30T10:25:56.660Z,9.60
2023-01-30T10:28:32.561Z,9.70
2023-01-30T10:31:15.008Z,9.90
2023-01-30T10:33:50.304Z,9.90
2023-01-30T10:36:29.537Z,11.50
2023-01-30T10:39:00.504Z,11.80
2023-01-30T10:41:36.481Z,13.60
2023-01-30T10:44:11.199Z,15.00
2023-01-30T10:47:09.374Z,16.80
2023-01-30T10:49:45.680Z,16.30
2023-01-30T10:52:43.806Z,14.70
2023-01-30T10:55:37.961Z,13.90
2023-01-30T10:58:16.289Z,13.70
2023-01-30T11:00:46.737Z,13.20
2023-01-30T11:03:19.940Z,13.30
2023-01-30T11:05:59.643Z,13.30
2023-01-30T11:08:34.390Z,13.10
2023-01-30T11:11:20.082Z,12.60
2023-01-30T11:13:47.404Z,12.70
2023-01-30T11:16:15.831Z,12.40
2023-01-30T11:19:18.677Z,13.00
2023-01-30T11:21:44.607Z,13.30
2023-01-30T11:24:34.713Z,13.00
2023-01-30T11:27:17.651Z,12.50
2023-01-30T11:29:45.052Z,12.60
2023-01-30T11:32:24.956Z,13.10
2023-01-30T11:35:28.619Z,13.30
2023-01-30T11:38:21.085Z,13.10
2023-01-30T11:40:49.127Z,13.70
2023-01-30T11:43:16.300Z,14.20
2023-01-30T11:45:48.125Z,14.80
2023-01-30T11:48:33.362Z,15.10
2023-01-30T11:51:09.179Z,16.40
2023-01-30T11:53:48.720Z,17.20
2023-01-30T11:56:24.115Z,16.80
2023-01-30T11:58:59.940Z,16.20
2023-01-30T12:01:33.837Z,15.60
2023-01-30T12:04:02.136Z,15.80
2023-01-30T12:06:35.300Z,16.70
2023-01-30T12:09:03.341Z,16.20
2023-01-30T12:11:30.591Z,15.60
2023-01-30T12:14:14.039Z,15.90
2023-01-30T12:16:56.692Z,16.80
2023-01-30T12:19:43.218Z,17.40
2023-01-30T12:22:26.601Z,17.40
2023-01-30T12:25:01.961Z,18.40
2023-01-30T12:27:49.148Z,17.40
2023-01-30T12:30:25.227Z,15.90
2023-01-30T12:32:59.207Z,15.10
2023-01-30T12:35:37.312Z,14.20
2023-01-30T12:38:23.271Z,13.70
2023-01-30T12:41:07.488Z,13.30
2023-01-30T12:44:15.218Z,13.10
2023-01-30T12:47:14.726Z,13.00
2023-01-30T12:50:13.066Z,12.70
2023-01-30T12:53:22.449Z,12.10
2023-01-30T12:56:21.637Z,12.00
2023-01-30T12:59:14.983Z,11.90
2023-01-30T13:01:43.270Z,11.70
2023-01-30T13:04:40.055Z,11.70
2023-01-30T13:07:41.288Z,12.30
2023-01-30T13:10:44.599Z,12.40
2023-01-30T13:13:22.529Z,12.20
2023-01-30T13:16:21.086Z,12.30
2023-01-30T13:18:57.651Z,13.30
2023-01-30T13:22:05.370Z,15.00
2023-01-30T13:25:02.033Z,16.90
2023-01-30T13:27:33.533Z,18.00
2023-01-30T13:30:04.363Z,17.10
2023-01-30T13:32:41.423Z,17.00
2023-01-30T13:35:19.354Z,17.20
2023-01-30T13:37:48.983Z,17.30
2023-01-30T13:40:18.678Z,17.90
2023-01-30T13:43:00.170Z,18.30
2023-01-30T13:45:32.230Z,18.10
2023-01-30T13:48:29.955Z,17.40
2023-01-30T13:51:28.959Z,17.00
2023-01-30T13:54:10.518Z,16.20
2023-01-30T13:56:55.378Z,15.20
2023-01-30T13:59:37.363Z,14.60
2023-01-30T14:02:06.516Z,13.80
2023-01-30T14:04:44.977Z,13.00
2023-01-30T14:07:12.164Z,12.30
2023-01-30T14:09:44.464Z,11.90
2023-01-30T14:12:25.986Z,11.60
2023-01-30T14:15:13.688Z,11.40
2023-01-30T14:18:00.755Z,11.30
2023-01-30T14:20:31.137Z,11.20
2023-01-30T14:23:05.348Z,11.20
2023-01-30T14:25:44.817Z,11.20
2023-01-30T14:28:11.952Z,11.20
2023-01-30T14:30:45.366Z,11.20
2023-01-30T14:33:21.549Z,11.00
2023-01-30T14:36:00.764Z,10.90
2023-01-30T14:38:30.494Z,10.80
2023-01-30T14:41:00.647Z,10.70
2023-01-30T14:43:43.014Z,10.70
2023-01-30T14:46:40.881Z,10.70
2023-01-30T14:49:29.115Z,10.60
2023-01-30T14:51:56.901Z,11.00
2023-01-30T14:54:40.254Z,11.10
2023-01-30T14:57:32.413Z,11.00
2023-01-30T15:00:18.234Z,11.00
2023-01-30T15:02:53.887Z,10.90
2023-01-30T15:05:43.552Z,10.70
2023-01-30T15:08:16.619Z,10.60
2023-01-30T15:10:52.782Z,10.40
2023-01-30T15:13:42.199Z,10.30
2023-01-30T15:16:24.137Z,10.20
2023-01-30T15:19:20.639Z,10.20
2023-01-30T15:22:18.406Z,10.10
2023-01-30T15:25:13.737Z,10.10
2023-01-30T15:27:59.039Z,10.10
2023-01-30T15:30:26.175Z,10.00
2023-01-30T15:33:19.894Z,10.00
2023-01-30T15:35:50.181Z,9.90
2023-01-30T15:38:28.937Z,9.80
2023-01-30T15:41:00.729Z,9.60
2023-01-30T15:43:48.198Z,9.40
2023-01-30T15:46:37.696Z,9.30
2023-01-30T15:49:17.021Z,9.30
2023-01-30T15:51:45.411Z,9.30
2023-01-30T15:54:18.213Z,9.30
2023-01-30T15:56:49.508Z,9.30
2023-01-30T15:59:36.221Z,9.20
2023-01-30T16:02:30.610Z,9.10
2023-01-30T16:05:17.435Z,9.00
2023-01-30T16:07:47.152Z,8.90
2023-01-30T16:10:20.864Z,8.80
2023-01-30T16:12:49.678Z,8.80
2023-01-30T16:15:45.882Z,8.70
2023-01-30T16:18:22.742Z,8.80
2023-01-30T16:21:02.101Z,8.70
2023-01-30T16:23:40.258Z,8.70
2023-01-30T16:26:14.163Z,8.60
2023-01-30T16:28:41.578Z,8.50
2023-01-30T16:31:10.675Z,8.40
2023-01-30T16:33:38.715Z,8.50
2023-01-30T16:36:27.219Z,8.50
2023-01-30T16:38:55.106Z,8.40
2023-01-30T16:41:34.528Z,8.30
2023-01-30T16:44:17.220Z,8.20
2023-01-30T16:46:48.958Z,8.20
2023-01-30T16:49:28.944Z,8.20
2023-01-30T16:52:20.480Z,8.20
2023-01-30T16:54:52.426Z,8.10
2023-01-30T16:57:39.745Z,8.00
2023-01-30T17:00:27.926Z,7.90
2023-01-30T17:03:01.024Z,7.90
2023-01-30T17:05:30.955Z,7.90
2023-01-30T17:08:00.434Z,8.00
2023-01-30T17:10:42.730Z,7.80
2023-01-30T17:13:34.891Z,7.70
2023-01-30T17:16:23.889Z,7.50
2023-01-30T17:18:53.082Z,7.40
2023-01-30T17:21:23.049Z,7.20
2023-01-30T17:23:57.752Z,7.20
2023-01-30T17:26:25.035Z,7.20
2023-01-30T17:28:52.243Z,7.20
2023-01-30T17:31:20.906Z,7.30
2023-01-30T17:33:48.324Z,7.40
2023-01-30T17:36:35.780Z,7.50
2023-01-30T17:39:03.071Z,7.60
2023-01-30T17:41:32.443Z,7.60
2023-01-30T17:43:59.626Z,7.50
2023-01-30T17:46:35.069Z,7.40
2023-01-30T17:49:02.637Z,7.40
2023-01-30T17:51:29.876Z,7.30
2023-01-30T17:53:57.091Z,7.30
2023-01-30T17:56:32.127Z,7.30
2023-01-30T17:58:59.329Z,7.30
2023-01-30T18:01:26.625Z,7.30
2023-01-30T18:03:53.815Z,7.30
2023-01-30T18:06:20.996Z,7.20
2023-01-30T18:08:48.267Z,7.20
2023-01-30T18:11:15.982Z,7.20
2023-01-30T18:13:43.252Z,7.20
2023-01-30T18:16:17.094Z,7.30
2023-01-30T18:18:44.280Z,7.30
2023-01-30T18:21:11.427Z,7.50
2023-01-30T18:23:38.661Z,7.60
2023-01-30T18:26:06.049Z,7.70
2023-01-30T18:28:33.325Z,7.70
2023-01-30T18:31:00.644Z,7.60
2023-01-30T18:33:27.855Z,7.60
2023-01-30T18:35:55.117Z,7.50
2023-01-30T18:38:22.314Z,7.40
2023-01-30T18:40:49.472Z,7.40
2023-01-30T18:43:16.713Z,7.30
2023-01-30T18:45:43.918Z,7.20
2023-01-30T18:48:11.082Z,7.20
2023-01-30T18:50:38.313Z,7.20
2023-01-30T18:53:07.201Z,7.20
2023-01-30T18:55:35.831Z,7.20
2023-01-30T18:58:03.124Z,7.20
2023-01-30T19:00:30.391Z,7.20
2023-01-30T19:02:57.745Z,7.20
2023-01-30T19:05:24.904Z,7.30
2023-01-30T19:07:52.150Z,7.40
2023-01-30T19:10:20.465Z,7.40
2023-01-30T19:13:06.300Z,7.40
2023-01-30T19:15:35.868Z,7.40
2023-01-30T19:18:03.111Z,7.40
2023-01-30T19:20:31.103Z,7.40
2023-01-30T19:22:58.534Z,7.50
2023-01-30T19:25:25.876Z,7.50
2023-01-30T19:27:55.053Z,7.50
2023-01-30T19:30:22.925Z,7.50
2023-01-30T19:32:51.946Z,7.50
2023-01-30T19:35:19.412Z,7.50
2023-01-30T19:37:46.696Z,7.50
2023-01-30T19:40:13.892Z,7.50
2023-01-30T19:42:44.437Z,7.50
2023-01-30T19:45:12.282Z,7.60
2023-01-30T19:47:39.464Z,7.60
2023-01-30T19:50:07.434Z,7.60
2023-01-30T19:52:34.848Z,7.60
2023-01-30T19:55:02.130Z,7.60
2023-01-30T19:57:29.273Z,7.60
2023-01-30T19:59:56.449Z,7.60
2023-01-30T20:02:24.418Z,7.50
2023-01-30T20:04:51.666Z,7.50
2023-01-30T20:07:18.907Z,7.50
2023-01-30T20:09:46.129Z,7.50
2023-01-30T20:12:13.517Z,7.40
2023-01-30T20:14:40.685Z,7.40
2023-01-30T20:17:07.937Z,7.40
2023-01-30T20:19:35.169Z,7.40
2023-01-30T20:22:08.015Z,7.30
2023-01-30T20:24:35.652Z,7.30
2023-01-30T20:27:03.960Z,7.30
2023-01-30T20:29:31.349Z,7.30
2023-01-30T20:31:58.624Z,7.30
2023-01-30T20:34:25.930Z,7.30
2023-01-30T20:36:53.145Z,7.30
2023-01-30T20:39:21.595Z,7.30
2023-01-30T20:41:49.018Z,7.30
2023-01-30T20:44:16.738Z,7.20
2023-01-30T20:46:46.084Z,7.20
2023-01-30T20:49:21.791Z,7.20
2023-01-30T20:51:51.716Z,7.20
2023-01-30T20:54:21.298Z,7.20
2023-01-30T20:56:53.559Z,7.20
2023-01-30T20:59:27.175Z,7.20
2023-01-30T21:01:55.206Z,7.30
2023-01-30T21:04:24.405Z,7.30
2023-01-30T21:06:51.947Z,7.40
2023-01-30T21:09:21.640Z,7.40
2023-01-30T21:11:49.605Z,7.40
2023-01-30T21:14:17.200Z,7.50
2023-01-30T21:16:45.047Z,7.50
2023-01-30T21:19:16.091Z,7.50
2023-01-30T21:21:53.319Z,7.50
2023-01-30T21:24:28.714Z,7.60
2023-01-30T21:26:56.571Z,7.70
2023-01-30T21:29:25.809Z,7.80
2023-01-30T21:31:54.003Z,7.80
2023-01-30T21:34:22.004Z,7.90
2023-01-30T21:37:09.162Z,7.90
2023-01-30T21:39:54.768Z,8.00
2023-01-30T21:42:40.777Z,8.10
2023-01-30T21:45:08.475Z,8.00
2023-01-30T21:47:36.750Z,7.90
2023-01-30T21:50:04.346Z,7.80
2023-01-30T21:52:33.170Z,7.80
2023-01-30T21:55:00.452Z,7.70
2023-01-30T21:57:27.746Z,7.70
2023-01-30T21:59:55.509Z,7.50
2023-01-30T22:02:22.764Z,7.50
2023-01-30T22:04:49.944Z,7.50
2023-01-30T22:07:17.179Z,7.50
2023-01-30T22:09:44.425Z,7.40
2023-01-30T22:12:11.616Z,7.40
2023-01-30T22:14:41.144Z,7.40
2023-01-30T22:17:08.366Z,7.40
2023-01-30T22:19:35.961Z,7.40
2023-01-30T22:22:04.143Z,7.30
2023-01-30T22:24:34.678Z,7.20
2023-01-30T22:27:01.911Z,7.20
2023-01-30T22:29:29.302Z,7.20
2023-01-30T22:31:56.550Z,7.10
2023-01-30T22:34:23.785Z,7.00
2023-01-30T22:36:51.703Z,7.10
2023-01-30T22:39:18.973Z,7.00
2023-01-30T22:41:46.574Z,7.00
2023-01-30T22:44:13.830Z,7.00
2023-01-30T22:46:41.363Z,7.00
2023-01-30T22:49:09.416Z,6.90
2023-01-30T22:51:39.554Z,6.90
2023-01-30T22:54:15.674Z,6.90
2023-01-30T22:56:45.666Z,6.90
2023-01-30T22:59:13.747Z,6.90
2023-01-30T23:01:44.623Z,6.80
2023-01-30T23:04:17.692Z,6.80
2023-01-30T23:06:45.816Z,6.80
2023-01-30T23:09:19.117Z,6.70
2023-01-30T23:12:10.891Z,6.80
2023-01-30T23:14:38.403Z,6.70
2023-01-30T23:17:26.766Z,6.70
2023-01-30T23:19:54.893Z,6.70
2023-01-30T23:22:22.439Z,6.70
2023-01-30T23:24:50.960Z,6.60
2023-01-30T23:27:18.689Z,6.60
2023-01-30T23:29:45.877Z,6.60
2023-01-30T23:32:13.075Z,6.60
2023-01-30T23:34:40.330Z,6.50
2023-01-30T23:37:07.808Z,6.50
2023-01-30T23:39:35.489Z,6.50
2023-01-30T23:42:02.847Z,6.60
2023-01-30T23:44:30.033Z,6.50
2023-01-30T23:46:57.315Z,6.50
2023-01-30T23:49:24.691Z,6.50
2023-01-30T23:51:51.939Z,6.50
2023-01-30T23:54:19.103Z,6.50
2023-01-30T23:56:46.300Z,6.50
2023-01-30T23:59:13.481Z,6.60
